sensor_id;sensor_type;location;lat;lon;timestamp;pressure;altitude;pressure_sealevel;temperature;humidity
59608;BME280;45426;44.726;10.390;2023-04-26T00:00:17;100206.88;;;10.34;100.00
59608;BME280;45426;44.726;10.390;2023-04-26T00:02:42;100205.88;;;10.51;100.00
59608;BME280;45426;44.726;10.390;2023-04-26T00:05:08;100209.66;;;9.91;100.00
59608;BME280;45426;44.726;10.390;2023-04-26T00:07:34;100207.06;;;10.74;100.00
59608;BME280;45426;44.726;10.390;2023-04-26T00:10:00;100209.47;;;10.09;100.00
59608;BME280;45426;44.726;10.390;2023-04-26T00:12:26;100217.66;;;9.88;100.00
59608;BME280;45426;44.726;10.390;2023-04-26T00:14:51;100212.38;;;9.20;100.00
59608;BME280;45426;44.726;10.390;2023-04-26T00:17:17;100218.31;;;9.13;100.00
59608;BME280;45426;44.726;10.390;2023-04-26T00:19:42;100214.31;;;9.19;100.00
59608;BME280;45426;44.726;10.390;2023-04-26T00:22:08;100215.34;;;9.57;100.00
59608;BME280;45426;44.726;10.390;2023-04-26T00:24:33;100206.72;;;9.33;100.00
59608;BME280;45426;44.726;10.390;2023-04-26T00:26:59;100218.69;;;9.53;100.00
59608;BME280;45426;44.726;10.390;2023-04-26T00:29:25;100221.16;;;8.87;100.00
59608;BME280;45426;44.726;10.390;2023-04-26T00:31:51;100215.47;;;9.09;100.00
59608;BME280;45426;44.726;10.390;2023-04-26T00:34:16;100218.91;;;9.69;100.00
59608;BME280;45426;44.726;10.390;2023-04-26T00:36:42;100215.34;;;9.99;100.00
59608;BME280;45426;44.726;10.390;2023-04-26T00:39:07;100225.94;;;9.91;100.00
59608;BME280;45426;44.726;10.390;2023-04-26T00:41:34;100220.28;;;9.97;100.00
59608;BME280;45426;44.726;10.390;2023-04-26T00:43:59;100229.88;;;9.94;100.00
59608;BME280;45426;44.726;10.390;2023-04-26T00:46:25;100224.25;;;9.36;100.00
59608;BME280;45426;44.726;10.390;2023-04-26T00:48:53;100229.22;;;9.55;100.00
59608;BME280;45426;44.726;10.390;2023-04-26T00:51:19;100224.78;;;9.50;100.00
59608;BME280;45426;44.726;10.390;2023-04-26T00:53:44;100228.09;;;8.67;100.00
59608;BME280;45426;44.726;10.390;2023-04-26T00:56:11;100228.69;;;8.72;100.00
59608;BME280;45426;44.726;10.390;2023-04-26T00:58:37;100228.38;;;8.74;100.00
59608;BME280;45426;44.726;10.390;2023-04-26T01:01:03;100223.91;;;9.38;100.00
59608;BME280;45426;44.726;10.390;2023-04-26T01:03:28;100221.34;;;9.11;100.00
59608;BME280;45426;44.726;10.390;2023-04-26T01:05:54;100213.34;;;8.85;100.00
59608;BME280;45426;44.726;10.390;2023-04-26T01:08:20;100222.75;;;9.18;100.00
59608;BME280;45426;44.726;10.390;2023-04-26T01:10:48;100224.06;;;9.83;100.00
59608;BME280;45426;44.726;10.390;2023-04-26T01:13:14;100218.78;;;9.15;100.00
59608;BME280;45426;44.726;10.390;2023-04-26T01:15:44;100225.19;;;9.82;100.00
59608;BME280;45426;44.726;10.390;2023-04-26T01:18:10;100219.56;;;9.45;100.00
59608;BME280;45426;44.726;10.390;2023-04-26T01:20:36;100213.63;;;9.52;100.00
59608;BME280;45426;44.726;10.390;2023-04-26T01:23:02;100217.50;;;10.05;100.00
59608;BME280;45426;44.726;10.390;2023-04-26T01:25:28;100224.84;;;9.63;100.00
59608;BME280;45426;44.726;10.390;2023-04-26T01:27:53;100234.31;;;9.99;100.00
59608;BME280;45426;44.726;10.390;2023-04-26T01:30:19;100227.09;;;9.61;100.00
59608;BME280;45426;44.726;10.390;2023-04-26T01:32:44;100231.88;;;9.64;100.00
59608;BME280;45426;44.726;10.390;2023-04-26T01:35:10;100233.59;;;9.47;100.00
59608;BME280;45426;44.726;10.390;2023-04-26T01:37:35;100234.16;;;9.02;100.00
59608;BME280;45426;44.726;10.390;2023-04-26T01:40:01;100239.47;;;8.90;100.00
59608;BME280;45426;44.726;10.390;2023-04-26T01:42:26;100237.81;;;9.36;100.00
59608;BME280;45426;44.726;10.390;2023-04-26T01:44:51;100243.50;;;9.43;100.00
59608;BME280;45426;44.726;10.390;2023-04-26T01:47:17;100247.75;;;9.53;100.00
59608;BME280;45426;44.726;10.390;2023-04-26T01:49:42;100247.22;;;9.60;100.00
59608;BME280;45426;44.726;10.390;2023-04-26T01:52:08;100247.41;;;10.18;100.00
59608;BME280;45426;44.726;10.390;2023-04-26T01:54:33;100262.69;;;10.22;100.00
59608;BME280;45426;44.726;10.390;2023-04-26T01:56:59;100261.03;;;9.67;100.00
59608;BME280;45426;44.726;10.390;2023-04-26T01:59:24;100264.81;;;10.17;100.00
59608;BME280;45426;44.726;10.390;2023-04-26T02:01:49;100254.34;;;10.27;100.00
59608;BME280;45426;44.726;10.390;2023-04-26T02:04:15;100260.88;;;10.26;100.00
59608;BME280;45426;44.726;10.390;2023-04-26T02:06:40;100267.31;;;10.22;100.00
59608;BME280;45426;44.726;10.390;2023-04-26T02:09:07;100269.66;;;10.32;100.00
59608;BME280;45426;44.726;10.390;2023-04-26T02:11:35;100271.41;;;9.44;100.00
59608;BME280;45426;44.726;10.390;2023-04-26T02:14:01;100273.16;;;9.90;100.00
59608;BME280;45426;44.726;10.390;2023-04-26T02:16:26;100270.44;;;10.11;100.00
59608;BME280;45426;44.726;10.390;2023-04-26T02:18:52;100276.19;;;9.68;100.00
59608;BME280;45426;44.726;10.390;2023-04-26T02:21:18;100275.13;;;9.39;100.00
59608;BME280;45426;44.726;10.390;2023-04-26T02:23:44;100282.41;;;8.70;100.00
59608;BME280;45426;44.726;10.390;2023-04-26T02:26:09;100280.59;;;9.22;100.00
59608;BME280;45426;44.726;10.390;2023-04-26T02:28:37;100281.47;;;8.23;100.00
59608;BME280;45426;44.726;10.390;2023-04-26T02:31:02;100273.28;;;8.75;100.00
59608;BME280;45426;44.726;10.390;2023-04-26T02:33:28;100275.50;;;8.82;100.00
59608;BME280;45426;44.726;10.390;2023-04-26T02:35:53;100278.59;;;8.45;100.00
59608;BME280;45426;44.726;10.390;2023-04-26T02:38:19;100280.00;;;8.78;100.00
59608;BME280;45426;44.726;10.390;2023-04-26T02:40:44;100279.69;;;9.47;100.00
59608;BME280;45426;44.726;10.390;2023-04-26T02:43:10;100274.91;;;9.44;100.00
59608;BME280;45426;44.726;10.390;2023-04-26T02:45:42;100273.31;;;9.73;100.00
59608;BME280;45426;44.726;10.390;2023-04-26T02:48:08;100280.53;;;9.39;100.00
59608;BME280;45426;44.726;10.390;2023-04-26T02:50:33;100276.53;;;9.66;100.00
59608;BME280;45426;44.726;10.390;2023-04-26T02:52:59;100279.03;;;9.21;100.00
59608;BME280;45426;44.726;10.390;2023-04-26T02:55:24;100276.22;;;8.26;100.00
59608;BME280;45426;44.726;10.390;2023-04-26T02:57:50;100275.13;;;8.45;100.00
59608;BME280;45426;44.726;10.390;2023-04-26T03:00:15;100279.75;;;8.18;100.00
59608;BME280;45426;44.726;10.390;2023-04-26T03:02:41;100285.03;;;7.31;100.00
59608;BME280;45426;44.726;10.390;2023-04-26T03:05:07;100289.78;;;7.25;100.00
59608;BME280;45426;44.726;10.390;2023-04-26T03:07:33;100288.44;;;7.63;100.00
59608;BME280;45426;44.726;10.390;2023-04-26T03:09:59;100285.91;;;7.57;100.00
59608;BME280;45426;44.726;10.390;2023-04-26T03:12:25;100284.97;;;7.71;100.00
59608;BME280;45426;44.726;10.390;2023-04-26T03:14:50;100285.91;;;7.57;100.00
59608;BME280;45426;44.726;10.390;2023-04-26T03:17:16;100299.13;;;7.85;100.00
59608;BME280;45426;44.726;10.390;2023-04-26T03:19:41;100286.34;;;8.82;100.00
59608;BME280;45426;44.726;10.390;2023-04-26T03:22:07;100286.66;;;8.89;100.00
59608;BME280;45426;44.726;10.390;2023-04-26T03:24:32;100285.03;;;8.97;100.00
59608;BME280;45426;44.726;10.390;2023-04-26T03:26:58;100293.06;;;7.62;100.00
59608;BME280;45426;44.726;10.390;2023-04-26T03:29:24;100293.72;;;7.68;100.00
59608;BME280;45426;44.726;10.390;2023-04-26T03:31:49;100291.53;;;6.90;100.00
59608;BME280;45426;44.726;10.390;2023-04-26T03:34:15;100292.69;;;7.46;100.00
59608;BME280;45426;44.726;10.390;2023-04-26T03:36:40;100290.97;;;7.59;100.00
59608;BME280;45426;44.726;10.390;2023-04-26T03:39:06;100290.38;;;7.71;100.00
59608;BME280;45426;44.726;10.390;2023-04-26T03:41:31;100294.66;;;7.72;100.00
59608;BME280;45426;44.726;10.390;2023-04-26T03:44:01;100292.59;;;6.80;100.00
59608;BME280;45426;44.726;10.390;2023-04-26T03:46:26;100298.06;;;6.89;100.00
59608;BME280;45426;44.726;10.390;2023-04-26T03:48:52;100302.72;;;7.46;100.00
59608;BME280;45426;44.726;10.390;2023-04-26T03:51:17;100306.31;;;8.07;100.00
59608;BME280;45426;44.726;10.390;2023-04-26T03:53:42;100317.44;;;7.88;100.00
59608;BME280;45426;44.726;10.390;2023-04-26T03:56:10;100302.34;;;8.57;100.00
59608;BME280;45426;44.726;10.390;2023-04-26T03:58:36;100308.50;;;8.84;100.00
59608;BME280;45426;44.726;10.390;2023-04-26T04:01:01;100312.06;;;8.23;100.00
59608;BME280;45426;44.726;10.390;2023-04-26T04:03:27;100314.41;;;7.81;100.00
59608;BME280;45426;44.726;10.390;2023-04-26T04:05:54;100316.78;;;7.25;100.00
59608;BME280;45426;44.726;10.390;2023-04-26T04:08:20;100321.28;;;6.98;100.00
59608;BME280;45426;44.726;10.390;2023-04-26T04:10:45;100319.38;;;6.99;100.00
59608;BME280;45426;44.726;10.390;2023-04-26T04:13:11;100323.13;;;7.61;100.00
59608;BME280;45426;44.726;10.390;2023-04-26T04:15:36;100322.16;;;7.56;100.00
59608;BME280;45426;44.726;10.390;2023-04-26T04:18:02;100311.22;;;7.22;100.00
59608;BME280;45426;44.726;10.390;2023-04-26T04:20:28;100317.50;;;6.99;100.00
59608;BME280;45426;44.726;10.390;2023-04-26T04:22:53;100314.88;;;7.74;100.00
59608;BME280;45426;44.726;10.390;2023-04-26T04:25:19;100320.63;;;6.93;100.00
59608;BME280;45426;44.726;10.390;2023-04-26T04:27:47;100319.88;;;7.01;100.00
59608;BME280;45426;44.726;10.390;2023-04-26T04:30:13;100322.84;;;6.91;100.00
59608;BME280;45426;44.726;10.390;2023-04-26T04:32:38;100318.75;;;7.33;100.00
59608;BME280;45426;44.726;10.390;2023-04-26T04:35:05;100317.09;;;7.81;100.00
59608;BME280;45426;44.726;10.390;2023-04-26T04:37:31;100319.34;;;7.88;100.00
59608;BME280;45426;44.726;10.390;2023-04-26T04:40:00;100320.78;;;8.11;100.00
59608;BME280;45426;44.726;10.390;2023-04-26T04:42:25;100328.25;;;7.88;100.00
59608;BME280;45426;44.726;10.390;2023-04-26T04:44:52;100330.81;;;8.11;100.00
59608;BME280;45426;44.726;10.390;2023-04-26T04:47:19;100333.34;;;7.98;100.00
59608;BME280;45426;44.726;10.390;2023-04-26T04:49:44;100320.78;;;7.76;100.00
59608;BME280;45426;44.726;10.390;2023-04-26T04:52:11;100330.78;;;7.76;100.00
59608;BME280;45426;44.726;10.390;2023-04-26T04:54:37;100331.03;;;8.49;100.00
59608;BME280;45426;44.726;10.390;2023-04-26T04:57:02;100323.19;;;8.74;100.00
59608;BME280;45426;44.726;10.390;2023-04-26T04:59:28;100334.59;;;8.97;100.00
59608;BME280;45426;44.726;10.390;2023-04-26T05:01:54;100337.19;;;8.85;100.00
59608;BME280;45426;44.726;10.390;2023-04-26T05:04:20;100335.47;;;8.54;100.00
59608;BME280;45426;44.726;10.390;2023-04-26T05:06:45;100343.22;;;8.82;100.00
59608;BME280;45426;44.726;10.390;2023-04-26T05:09:11;100344.63;;;9.05;100.00
59608;BME280;45426;44.726;10.390;2023-04-26T05:11:36;100350.59;;;9.20;100.00
59608;BME280;45426;44.726;10.390;2023-04-26T05:14:02;100348.41;;;9.13;100.00
59608;BME280;45426;44.726;10.390;2023-04-26T05:16:27;100352.91;;;9.47;100.00
59608;BME280;45426;44.726;10.390;2023-04-26T05:18:53;100359.06;;;9.57;100.00
59608;BME280;45426;44.726;10.390;2023-04-26T05:21:18;100364.19;;;10.30;100.00
59608;BME280;45426;44.726;10.390;2023-04-26T05:23:43;100364.75;;;10.23;100.00
59608;BME280;45426;44.726;10.390;2023-04-26T05:26:14;100371.25;;;10.85;100.00
59608;BME280;45426;44.726;10.390;2023-04-26T05:28:40;100373.00;;;10.06;100.00
59608;BME280;45426;44.726;10.390;2023-04-26T05:31:06;100371.94;;;9.68;100.00
59608;BME280;45426;44.726;10.390;2023-04-26T05:33:31;100366.84;;;10.60;100.00
59608;BME280;45426;44.726;10.390;2023-04-26T05:35:57;100376.50;;;11.03;100.00
59608;BME280;45426;44.726;10.390;2023-04-26T05:38:23;100378.41;;;11.73;100.00
59608;BME280;45426;44.726;10.390;2023-04-26T05:40:48;100374.09;;;11.72;100.00
59608;BME280;45426;44.726;10.390;2023-04-26T05:43:14;100383.81;;;11.48;100.00
59608;BME280;45426;44.726;10.390;2023-04-26T05:45:39;100379.09;;;11.94;100.00
59608;BME280;45426;44.726;10.390;2023-04-26T05:48:05;100379.88;;;12.07;100.00
59608;BME280;45426;44.726;10.390;2023-04-26T05:50:30;100397.31;;;12.18;100.00
59608;BME280;45426;44.726;10.390;2023-04-26T05:52:56;100386.00;;;12.04;100.00
59608;BME280;45426;44.726;10.390;2023-04-26T05:55:22;100390.09;;;11.98;100.00
59608;BME280;45426;44.726;10.390;2023-04-26T05:57:47;100393.16;;;11.84;100.00
59608;BME280;45426;44.726;10.390;2023-04-26T06:00:13;100399.25;;;11.69;100.00
59608;BME280;45426;44.726;10.390;2023-04-26T06:02:39;100393.06;;;12.46;100.00
59608;BME280;45426;44.726;10.390;2023-04-26T06:05:05;100397.56;;;12.13;100.00
59608;BME280;45426;44.726;10.390;2023-04-26T06:07:31;100403.31;;;12.36;100.00
59608;BME280;45426;44.726;10.390;2023-04-26T06:09:57;100405.31;;;12.52;100.00
59608;BME280;45426;44.726;10.390;2023-04-26T06:12:22;100403.50;;;13.60;100.00
59608;BME280;45426;44.726;10.390;2023-04-26T06:14:47;100406.28;;;14.66;100.00
59608;BME280;45426;44.726;10.390;2023-04-26T06:17:13;100409.81;;;14.31;100.00
59608;BME280;45426;44.726;10.390;2023-04-26T06:19:38;100415.97;;;14.83;100.00
59608;BME280;45426;44.726;10.390;2023-04-26T06:22:04;100423.84;;;15.08;100.00
59608;BME280;45426;44.726;10.390;2023-04-26T06:24:29;100423.09;;;14.68;100.00
59608;BME280;45426;44.726;10.390;2023-04-26T06:26:55;100420.94;;;15.20;100.00
59608;BME280;45426;44.726;10.390;2023-04-26T06:29:20;100424.16;;;15.26;100.00
59608;BME280;45426;44.726;10.390;2023-04-26T06:31:46;100422.81;;;14.38;100.00
59608;BME280;45426;44.726;10.390;2023-04-26T06:34:11;100418.47;;;16.68;100.00
59608;BME280;45426;44.726;10.390;2023-04-26T06:36:37;100424.50;;;17.59;100.00
59608;BME280;45426;44.726;10.390;2023-04-26T06:39:02;100412.94;;;18.50;100.00
59608;BME280;45426;44.726;10.390;2023-04-26T06:41:28;100418.59;;;18.83;100.00
59608;BME280;45426;44.726;10.390;2023-04-26T06:43:53;100420.66;;;19.18;100.00
59608;BME280;45426;44.726;10.390;2023-04-26T06:46:19;100407.94;;;21.20;100.00
59608;BME280;45426;44.726;10.390;2023-04-26T06:48:45;100425.00;;;23.09;100.00
59608;BME280;45426;44.726;10.390;2023-04-26T06:51:10;100415.63;;;26.12;100.00
59608;BME280;45426;44.726;10.390;2023-04-26T06:53:36;100421.41;;;31.11;81.49
59608;BME280;45426;44.726;10.390;2023-04-26T06:56:02;100419.59;;;31.23;71.32
59608;BME280;45426;44.726;10.390;2023-04-26T06:58:27;100427.97;;;34.32;65.75
59608;BME280;45426;44.726;10.390;2023-04-26T07:00:53;100424.03;;;35.62;62.65
59608;BME280;45426;44.726;10.390;2023-04-26T07:03:18;100436.97;;;30.60;61.56
59608;BME280;45426;44.726;10.390;2023-04-26T07:05:44;100434.81;;;36.58;60.18
59608;BME280;45426;44.726;10.390;2023-04-26T07:08:09;100427.59;;;35.08;56.03
59608;BME280;45426;44.726;10.390;2023-04-26T07:10:35;100435.88;;;32.75;58.34
59608;BME280;45426;44.726;10.390;2023-04-26T07:13:00;100434.56;;;34.23;60.41
59608;BME280;45426;44.726;10.390;2023-04-26T07:15:27;100435.28;;;35.51;58.76
59608;BME280;45426;44.726;10.390;2023-04-26T07:17:52;100436.38;;;36.59;57.11
59608;BME280;45426;44.726;10.390;2023-04-26T07:20:17;100420.41;;;36.95;54.22
59608;BME280;45426;44.726;10.390;2023-04-26T07:22:45;100421.75;;;38.17;53.27
59608;BME280;45426;44.726;10.390;2023-04-26T07:25:11;100431.38;;;35.91;51.06
59608;BME280;45426;44.726;10.390;2023-04-26T07:27:37;100427.81;;;35.05;55.46
59608;BME280;45426;44.726;10.390;2023-04-26T07:30:03;100423.34;;;37.48;55.96
59608;BME280;45426;44.726;10.390;2023-04-26T07:32:30;100426.03;;;37.18;54.02
59608;BME280;45426;44.726;10.390;2023-04-26T07:34:55;100422.44;;;35.07;56.14
59608;BME280;45426;44.726;10.390;2023-04-26T07:37:21;100434.81;;;36.86;54.71
59608;BME280;45426;44.726;10.390;2023-04-26T07:39:47;100428.06;;;38.34;52.03
59608;BME280;45426;44.726;10.390;2023-04-26T07:42:12;100432.19;;;35.43;52.28
59608;BME280;45426;44.726;10.390;2023-04-26T07:44:38;100427.25;;;35.32;58.90
59608;BME280;45426;44.726;10.390;2023-04-26T07:47:03;100436.63;;;33.61;59.99
59608;BME280;45426;44.726;10.390;2023-04-26T07:49:28;100439.94;;;34.79;56.20
59608;BME280;45426;44.726;10.390;2023-04-26T07:51:54;100436.59;;;33.20;61.82
59608;BME280;45426;44.726;10.390;2023-04-26T07:54:20;100441.16;;;33.94;59.88
59608;BME280;45426;44.726;10.390;2023-04-26T07:56:46;100449.28;;;34.91;59.71
59608;BME280;45426;44.726;10.390;2023-04-26T07:59:11;100437.88;;;36.31;56.95
59608;BME280;45426;44.726;10.390;2023-04-26T08:01:37;100446.97;;;31.70;54.49
59608;BME280;45426;44.726;10.390;2023-04-26T08:04:03;100447.44;;;34.30;62.06
59608;BME280;45426;44.726;10.390;2023-04-26T08:06:29;100455.84;;;32.92;60.39
59608;BME280;45426;44.726;10.390;2023-04-26T08:08:55;100459.34;;;29.58;62.94
59608;BME280;45426;44.726;10.390;2023-04-26T08:11:21;100457.38;;;28.65;75.04
59608;BME280;45426;44.726;10.390;2023-04-26T08:13:47;100450.88;;;31.88;71.32
59608;BME280;45426;44.726;10.390;2023-04-26T08:16:12;100445.47;;;32.83;61.46
59608;BME280;45426;44.726;10.390;2023-04-26T08:18:38;100463.34;;;29.39;61.74
59608;BME280;45426;44.726;10.390;2023-04-26T08:21:03;100468.97;;;25.94;71.53
59608;BME280;45426;44.726;10.390;2023-04-26T08:23:32;100473.03;;;23.80;100.00
59608;BME280;45426;44.726;10.390;2023-04-26T08:25:59;100472.50;;;21.51;100.00
59608;BME280;45426;44.726;10.390;2023-04-26T08:28:25;100466.34;;;21.82;100.00
59608;BME280;45426;44.726;10.390;2023-04-26T08:30:50;100468.19;;;22.41;100.00
59608;BME280;45426;44.726;10.390;2023-04-26T08:33:17;100462.25;;;21.97;100.00
59608;BME280;45426;44.726;10.390;2023-04-26T08:35:42;100463.13;;;21.35;100.00
59608;BME280;45426;44.726;10.390;2023-04-26T08:38:08;100459.75;;;23.13;100.00
59608;BME280;45426;44.726;10.390;2023-04-26T08:40:35;100467.03;;;22.35;100.00
59608;BME280;45426;44.726;10.390;2023-04-26T08:43:00;100459.38;;;22.08;100.00
59608;BME280;45426;44.726;10.390;2023-04-26T08:45:26;100473.31;;;20.71;100.00
59608;BME280;45426;44.726;10.390;2023-04-26T08:48:02;100469.16;;;21.11;100.00
59608;BME280;45426;44.726;10.390;2023-04-26T08:50:30;100467.06;;;21.89;100.00
59608;BME280;45426;44.726;10.390;2023-04-26T08:52:57;100468.41;;;21.07;100.00
59608;BME280;45426;44.726;10.390;2023-04-26T08:55:23;100480.44;;;21.42;100.00
59608;BME280;45426;44.726;10.390;2023-04-26T08:57:50;100469.56;;;21.13;100.00
59608;BME280;45426;44.726;10.390;2023-04-26T09:00:16;100474.28;;;21.17;100.00
59608;BME280;45426;44.726;10.390;2023-04-26T09:02:47;100481.72;;;20.03;100.00
59608;BME280;45426;44.726;10.390;2023-04-26T09:05:12;100477.78;;;20.07;100.00
59608;BME280;45426;44.726;10.390;2023-04-26T09:07:40;100470.31;;;19.83;100.00
59608;BME280;45426;44.726;10.390;2023-04-26T09:10:08;100471.47;;;21.24;100.00
59608;BME280;45426;44.726;10.390;2023-04-26T09:12:34;100465.94;;;21.24;100.00
59608;BME280;45426;44.726;10.390;2023-04-26T09:15:00;100468.81;;;21.69;100.00
59608;BME280;45426;44.726;10.390;2023-04-26T09:17:30;100472.28;;;21.17;100.00
59608;BME280;45426;44.726;10.390;2023-04-26T09:19:57;100466.81;;;22.18;100.00
59608;BME280;45426;44.726;10.390;2023-04-26T09:22:33;100462.78;;;21.85;100.00
59608;BME280;45426;44.726;10.390;2023-04-26T09:25:01;100467.50;;;22.29;100.00
59608;BME280;45426;44.726;10.390;2023-04-26T09:27:38;100459.00;;;21.61;100.00
59608;BME280;45426;44.726;10.390;2023-04-26T09:35:25;100455.94;;;21.51;100.00
59608;BME280;45426;44.726;10.390;2023-04-26T09:37:56;100458.00;;;21.89;100.00
59608;BME280;45426;44.726;10.390;2023-04-26T09:40:23;100453.28;;;21.26;100.00
59608;BME280;45426;44.726;10.390;2023-04-26T09:45:22;100461.50;;;21.44;100.00
59608;BME280;45426;44.726;10.390;2023-04-26T09:47:48;100458.44;;;20.22;100.00
59608;BME280;45426;44.726;10.390;2023-04-26T09:50:24;100456.84;;;17.77;100.00
59608;BME280;45426;44.726;10.390;2023-04-26T09:52:50;100454.91;;;20.14;100.00
59608;BME280;45426;44.726;10.390;2023-04-26T09:55:25;100447.59;;;18.66;100.00
59608;BME280;45426;44.726;10.390;2023-04-26T09:57:52;100436.88;;;21.01;100.00
59608;BME280;45426;44.726;10.390;2023-04-26T10:00:17;100434.75;;;21.27;100.00
59608;BME280;45426;44.726;10.390;2023-04-26T10:02:44;100433.13;;;21.85;100.00
59608;BME280;45426;44.726;10.390;2023-04-26T10:05:10;100430.09;;;21.69;100.00
59608;BME280;45426;44.726;10.390;2023-04-26T10:07:36;100431.63;;;21.25;100.00
59608;BME280;45426;44.726;10.390;2023-04-26T10:10:02;100431.69;;;22.12;100.00
59608;BME280;45426;44.726;10.390;2023-04-26T10:12:28;100425.31;;;22.18;100.00
59608;BME280;45426;44.726;10.390;2023-04-26T10:14:54;100428.53;;;20.06;100.00
59608;BME280;45426;44.726;10.390;2023-04-26T10:17:21;100422.53;;;20.47;100.00
59608;BME280;45426;44.726;10.390;2023-04-26T10:19:49;100420.13;;;20.52;100.00
59608;BME280;45426;44.726;10.390;2023-04-26T10:22:22;100418.38;;;20.91;100.00
59608;BME280;45426;44.726;10.390;2023-04-26T10:24:50;100420.66;;;21.10;100.00
59608;BME280;45426;44.726;10.390;2023-04-26T10:30:19;100412.69;;;21.23;100.00
59608;BME280;45426;44.726;10.390;2023-04-26T10:35:20;100408.09;;;22.00;100.00
59608;BME280;45426;44.726;10.390;2023-04-26T10:40:34;100401.09;;;21.88;100.00
59608;BME280;45426;44.726;10.390;2023-04-26T10:45:46;100397.31;;;20.45;100.00
59608;BME280;45426;44.726;10.390;2023-04-26T10:48:19;100399.72;;;22.07;100.00
59608;BME280;45426;44.726;10.390;2023-04-26T10:56:10;100395.56;;;20.80;100.00
59608;BME280;45426;44.726;10.390;2023-04-26T10:58:39;100386.22;;;21.22;100.00
59608;BME280;45426;44.726;10.390;2023-04-26T11:04:09;100388.88;;;22.23;100.00
59608;BME280;45426;44.726;10.390;2023-04-26T11:09:35;100383.81;;;22.18;100.00
59608;BME280;45426;44.726;10.390;2023-04-26T11:12:13;100375.59;;;22.76;100.00
59608;BME280;45426;44.726;10.390;2023-04-26T11:14:40;100371.78;;;22.94;100.00
59608;BME280;45426;44.726;10.390;2023-04-26T11:17:07;100365.47;;;22.62;100.00
59608;BME280;45426;44.726;10.390;2023-04-26T11:19:33;100360.59;;;22.43;100.00
59608;BME280;45426;44.726;10.390;2023-04-26T11:22:00;100356.09;;;21.84;100.00
59608;BME280;45426;44.726;10.390;2023-04-26T11:24:29;100359.59;;;21.50;100.00
59608;BME280;45426;44.726;10.390;2023-04-26T11:26:55;100363.00;;;22.03;100.00
59608;BME280;45426;44.726;10.390;2023-04-26T11:29:22;100344.91;;;23.18;100.00
59608;BME280;45426;44.726;10.390;2023-04-26T11:31:56;100339.50;;;22.53;100.00
59608;BME280;45426;44.726;10.390;2023-04-26T11:34:34;100337.69;;;22.70;100.00
59608;BME280;45426;44.726;10.390;2023-04-26T11:37:01;100340.28;;;22.53;100.00
59608;BME280;45426;44.726;10.390;2023-04-26T11:39:34;100327.69;;;23.06;100.00
59608;BME280;45426;44.726;10.390;2023-04-26T11:42:08;100325.34;;;23.01;100.00
59608;BME280;45426;44.726;10.390;2023-04-26T11:44:34;100322.31;;;22.92;100.00
59608;BME280;45426;44.726;10.390;2023-04-26T11:47:00;100320.59;;;23.49;100.00
59608;BME280;45426;44.726;10.390;2023-04-26T11:49:28;100327.34;;;21.32;100.00
59608;BME280;45426;44.726;10.390;2023-04-26T11:51:54;100321.28;;;22.55;100.00
59608;BME280;45426;44.726;10.390;2023-04-26T11:54:34;100326.03;;;23.09;100.00
59608;BME280;45426;44.726;10.390;2023-04-26T11:57:12;100330.44;;;23.54;100.00
59608;BME280;45426;44.726;10.390;2023-04-26T11:59:38;100325.66;;;22.53;100.00
59608;BME280;45426;44.726;10.390;2023-04-26T12:02:06;100327.75;;;22.99;100.00
59608;BME280;45426;44.726;10.390;2023-04-26T12:04:32;100314.06;;;23.39;100.00
59608;BME280;45426;44.726;10.390;2023-04-26T12:06:58;100327.16;;;21.05;100.00
59608;BME280;45426;44.726;10.390;2023-04-26T12:09:27;100326.19;;;22.98;100.00
59608;BME280;45426;44.726;10.390;2023-04-26T12:12:01;100320.22;;;21.35;100.00
59608;BME280;45426;44.726;10.390;2023-04-26T12:14:35;100318.56;;;20.96;100.00
59608;BME280;45426;44.726;10.390;2023-04-26T12:17:01;100319.41;;;21.80;100.00
59608;BME280;45426;44.726;10.390;2023-04-26T12:19:32;100317.59;;;22.65;100.00
59608;BME280;45426;44.726;10.390;2023-04-26T12:21:57;100311.34;;;22.85;100.00
59608;BME280;45426;44.726;10.390;2023-04-26T12:24:23;100311.53;;;23.25;100.00
59608;BME280;45426;44.726;10.390;2023-04-26T12:26:48;100307.41;;;23.77;100.00
59608;BME280;45426;44.726;10.390;2023-04-26T12:29:14;100309.06;;;23.31;100.00
59608;BME280;45426;44.726;10.390;2023-04-26T12:31:39;100308.38;;;24.10;100.00
59608;BME280;45426;44.726;10.390;2023-04-26T12:34:05;100305.72;;;23.63;100.00
59608;BME280;45426;44.726;10.390;2023-04-26T12:36:32;100297.13;;;23.77;100.00
59608;BME280;45426;44.726;10.390;2023-04-26T12:38:57;100302.31;;;23.08;100.00
59608;BME280;45426;44.726;10.390;2023-04-26T12:41:23;100303.53;;;23.74;100.00
59608;BME280;45426;44.726;10.390;2023-04-26T12:43:48;100309.72;;;23.82;100.00
59608;BME280;45426;44.726;10.390;2023-04-26T12:46:14;100303.63;;;23.91;100.00
59608;BME280;45426;44.726;10.390;2023-04-26T12:48:39;100298.09;;;23.67;100.00
59608;BME280;45426;44.726;10.390;2023-04-26T12:51:05;100298.91;;;22.97;100.00
59608;BME280;45426;44.726;10.390;2023-04-26T12:53:31;100302.91;;;23.43;100.00
59608;BME280;45426;44.726;10.390;2023-04-26T12:55:56;100295.50;;;23.13;100.00
59608;BME280;45426;44.726;10.390;2023-04-26T12:58:21;100301.47;;;23.35;100.00
59608;BME280;45426;44.726;10.390;2023-04-26T13:00:47;100295.34;;;22.96;100.00